Time;durP1;ratioP1;P1;durP2;ratioP2;P2;SDS_P1;SDS_P2;PMS_P1;PMS_P2;Temp;Humidity;BMP_temperature;BMP_pressure;BME280_temperature;BME280_humidity;BME280_pressure;Samples;Min_cycle;Max_cycle;Signal;HPM_P1;HPM_P2
2022/07/23 00:00:32;;;;;;;1.50;1.40;;;26.80;74.40;;;;;;5077293;28;20484;-93
2022/07/23 00:02:59;;;;;;;1.80;1.70;;;26.80;74.50;;;;;;5077303;28;20504;-92
2022/07/23 00:05:27;;;;;;;1.70;1.60;;;26.80;74.50;;;;;;5077949;28;20638;-93
2022/07/23 00:07:54;;;;;;;1.90;1.80;;;26.80;74.50;;;;;;5069095;28;20544;-92
2022/07/23 00:10:21;;;;;;;1.93;1.70;;;26.80;74.50;;;;;;5076934;28;20532;-94
2022/07/23 00:12:48;;;;;;;2.00;1.90;;;26.80;74.60;;;;;;5076760;28;21013;-95
2022/07/23 00:15:15;;;;;;;1.53;1.43;;;26.80;74.60;;;;;;5077469;28;20536;-92
2022/07/23 00:17:42;;;;;;;1.77;1.67;;;26.80;74.60;;;;;;5077203;28;20468;-93
2022/07/23 00:20:09;;;;;;;1.77;1.57;;;26.80;74.60;;;;;;5077293;28;20474;-92
2022/07/23 00:22:46;;;;;;;1.90;1.80;;;26.80;74.60;;;;;;5076810;28;20528;-93
2022/07/23 00:25:12;;;;;;;1.60;1.50;;;26.80;74.60;;;;;;5077032;28;20448;-95
2022/07/23 00:27:39;;;;;;;2.20;2.00;;;26.80;74.60;;;;;;5076536;28;20476;-92
2022/07/23 00:30:08;;;;;;;2.27;2.17;;;26.80;74.50;;;;;;5077098;28;20444;-93
2022/07/23 00:32:46;;;;;;;1.60;1.50;;;26.80;74.50;;;;;;5076561;28;20496;-93
2022/07/23 00:35:13;;;;;;;1.83;1.73;;;26.80;74.50;;;;;;5076601;28;20428;-94
2022/07/23 00:37:41;;;;;;;1.97;1.87;;;26.80;74.60;;;;;;5076232;28;20509;-92
2022/07/23 00:40:11;;;;;;;1.93;1.80;;;26.80;74.60;;;;;;5076421;28;20498;-95
2022/07/23 00:42:38;;;;;;;1.90;1.80;;;26.80;74.60;;;;;;5076312;28;20551;-93
2022/07/23 00:45:06;;;;;;;1.70;1.60;;;26.80;74.60;;;;;;5076583;28;20531;-92
2022/07/23 00:47:34;;;;;;;2.10;1.90;;;26.80;74.60;;;;;;5076236;28;20484;-92
2022/07/23 00:50:01;;;;;;;1.43;1.33;;;26.80;74.60;;;;;;5076682;28;20480;-93
2022/07/23 00:52:28;;;;;;;1.80;1.70;;;26.80;74.60;;;;;;5076405;28;20476;-93
2022/07/23 00:58:20;;;;;;;1.80;1.70;;;26.80;74.50;;;;;;5076424;28;20404;-95
2022/07/23 01:00:47;;;;;;;1.60;1.50;;;26.70;74.60;;;;;;5076072;28;20491;-93
2022/07/23 01:03:14;;;;;;;1.57;1.47;;;26.70;74.60;;;;;;5075461;28;20514;-94
2022/07/23 01:05:41;;;;;;;1.80;1.70;;;26.80;74.60;;;;;;5076624;28;20876;-92
2022/07/23 01:08:08;;;;;;;2.13;2.00;;;26.80;74.60;;;;;;5075895;28;20476;-92
2022/07/23 01:10:35;;;;;;;1.80;1.70;;;26.70;74.50;;;;;;5076147;28;20494;-92
2022/07/23 01:13:04;;;;;;;1.37;1.27;;;26.70;74.50;;;;;;5076013;28;20480;-95
2022/07/23 01:15:34;;;;;;;1.63;1.53;;;26.80;74.60;;;;;;5075746;28;20475;-92
2022/07/23 01:18:01;;;;;;;1.90;1.80;;;26.80;74.60;;;;;;5076286;28;20548;-93
2022/07/23 01:20:28;;;;;;;1.60;1.50;;;26.80;74.50;;;;;;5075791;28;20930;-93
2022/07/23 01:22:56;;;;;;;1.70;1.60;;;26.80;74.60;;;;;;5075573;28;20480;-93
2022/07/23 01:25:24;;;;;;;1.70;1.60;;;26.80;74.60;;;;;;5076028;28;20476;-93
2022/07/23 01:27:53;;;;;;;1.70;1.60;;;26.80;74.60;;;;;;5076247;28;20475;-94
2022/07/23 01:30:20;;;;;;;1.90;1.80;;;26.80;74.50;;;;;;5076146;28;20449;-93
2022/07/23 01:32:47;;;;;;;1.93;1.43;;;26.80;74.40;;;;;;5075419;28;20484;-92
2022/07/23 01:35:14;;;;;;;1.53;1.43;;;26.70;74.40;;;;;;5075461;28;20445;-94
2022/07/23 01:37:41;;;;;;;2.43;1.60;;;26.70;74.50;;;;;;5075285;28;20554;-93
2022/07/23 01:40:10;;;;;;;1.50;1.40;;;26.70;74.50;;;;;;5075243;28;20448;-95
2022/07/23 01:42:37;;;;;;;1.83;1.53;;;26.70;74.50;;;;;;5075337;28;20445;-94
2022/07/23 01:45:05;;;;;;;1.40;1.30;;;26.70;74.40;;;;;;5075531;28;21031;-93
2022/07/23 01:47:32;;;;;;;1.40;1.30;;;26.70;74.40;;;;;;5075521;28;20472;-93
2022/07/23 01:49:59;;;;;;;1.57;1.47;;;26.70;74.40;;;;;;5075351;28;20527;-93
2022/07/23 01:52:26;;;;;;;1.60;1.50;;;26.80;74.40;;;;;;5075601;28;20889;-95
2022/07/23 01:54:53;;;;;;;1.80;1.70;;;26.80;74.40;;;;;;5075542;28;20801;-93
2022/07/23 01:57:21;;;;;;;1.53;1.43;;;26.70;74.30;;;;;;5075148;28;20856;-94
2022/07/23 01:59:48;;;;;;;1.30;1.20;;;26.70;74.30;;;;;;5075714;28;20456;-94
2022/07/23 02:02:15;;;;;;;1.50;1.40;;;26.70;75.20;;;;;;5074967;28;20476;-93
2022/07/23 02:04:42;;;;;;;1.50;1.40;;;26.70;74.30;;;;;;5075808;28;20488;-93
2022/07/23 02:07:09;;;;;;;1.37;1.27;;;26.70;74.40;;;;;;5075114;28;20548;-92
2022/07/23 02:09:36;;;;;;;1.57;1.47;;;26.80;74.40;;;;;;5075557;28;20480;-93
2022/07/23 02:12:03;;;;;;;1.40;1.30;;;26.70;74.30;;;;;;5074894;28;20476;-94
2022/07/23 02:14:32;;;;;;;1.60;1.50;;;26.70;74.30;;;;;;5075205;28;20955;-93
2022/07/23 02:16:59;;;;;;;1.60;1.50;;;26.70;74.40;;;;;;5075380;28;20476;-94
2022/07/23 02:19:26;;;;;;;1.50;1.40;;;26.70;74.30;;;;;;5074453;28;20453;-94
2022/07/23 02:21:54;;;;;;;1.37;1.27;;;26.70;74.30;;;;;;5074922;28;20923;-94
2022/07/23 02:24:21;;;;;;;1.47;1.37;;;26.70;74.30;;;;;;5074559;28;20461;-94
2022/07/23 02:26:48;;;;;;;1.60;1.50;;;26.70;74.30;;;;;;5074760;28;20445;-93
2022/07/23 02:29:15;;;;;;;1.33;1.23;;;26.70;74.40;;;;;;5074544;28;20453;-94
2022/07/23 02:31:43;;;;;;;1.33;1.23;;;26.70;74.30;;;;;;5074180;28;21007;-94
2022/07/23 02:34:11;;;;;;;1.43;1.33;;;26.70;74.30;;;;;;5074262;28;20475;-93
2022/07/23 02:36:39;;;;;;;2.43;1.30;;;26.70;74.30;;;;;;5074004;28;20472;-93
2022/07/23 02:39:06;;;;;;;1.70;1.60;;;26.70;74.30;;;;;;5074452;28;20508;-93
2022/07/23 02:41:33;;;;;;;1.70;1.60;;;26.70;74.30;;;;;;5074390;28;20472;-92
2022/07/23 02:44:00;;;;;;;1.80;1.70;;;26.70;74.40;;;;;;5074242;28;20449;-94
2022/07/23 02:46:27;;;;;;;1.40;1.30;;;26.70;74.30;;;;;;5074238;28;20441;-93
2022/07/23 02:48:55;;;;;;;1.47;1.30;;;26.70;74.30;;;;;;5065635;28;20476;-93
2022/07/23 02:51:22;;;;;;;1.60;1.50;;;26.70;74.30;;;;;;5074908;28;20449;-93
2022/07/23 02:53:49;;;;;;;1.30;1.20;;;26.70;74.30;;;;;;5073864;28;21033;-94
2022/07/23 02:56:16;;;;;;;1.53;1.43;;;26.70;74.30;;;;;;5073936;28;20877;-93
2022/07/23 02:58:43;;;;;;;1.60;1.50;;;26.70;74.30;;;;;;5074489;28;20532;-93
2022/07/23 03:01:10;;;;;;;1.33;1.23;;;26.70;74.30;;;;;;5074165;28;20510;-93
2022/07/23 03:03:37;;;;;;;1.70;1.60;;;26.70;74.30;;;;;;5074183;28;20477;-94
2022/07/23 03:06:06;;;;;;;1.40;1.30;;;26.70;74.40;;;;;;5073795;28;20865;-93
2022/07/23 03:08:32;;;;;;;1.50;1.40;;;26.70;74.30;;;;;;5073813;28;20455;-93
2022/07/23 03:10:59;;;;;;;1.30;1.20;;;26.70;74.30;;;;;;5074390;28;20449;-93
2022/07/23 03:13:26;;;;;;;1.40;1.30;;;26.70;74.20;;;;;;5074081;28;20500;-92
2022/07/23 03:15:53;;;;;;;1.37;1.27;;;26.70;74.30;;;;;;5073998;28;20445;-95
2022/07/23 03:18:20;;;;;;;1.63;1.47;;;26.70;74.40;;;;;;5073983;28;20868;-93
2022/07/23 03:20:47;;;;;;;1.37;1.27;;;26.70;74.30;;;;;;5073747;28;20485;-93
2022/07/23 03:23:17;;;;;;;1.30;1.13;;;26.70;74.20;;;;;;5073884;28;20449;-93
2022/07/23 03:25:44;;;;;;;1.60;1.50;;;26.70;74.20;;;;;;5073980;28;20445;-94
2022/07/23 03:28:11;;;;;;;1.67;1.57;;;26.70;74.20;;;;;;5073415;28;21004;-94
2022/07/23 03:30:38;;;;;;;1.57;1.47;;;26.70;74.20;;;;;;5073578;28;20441;-93
2022/07/23 03:33:05;;;;;;;1.43;1.33;;;26.70;74.20;;;;;;5073645;28;20515;-93
2022/07/23 03:35:32;;;;;;;1.33;1.23;;;26.70;74.20;;;;;;5073721;28;20526;-93
2022/07/23 03:37:59;;;;;;;1.50;1.40;;;26.70;74.20;;;;;;5073296;28;20881;-93
2022/07/23 03:40:27;;;;;;;1.40;1.30;;;26.70;74.20;;;;;;5073761;28;20514;-94
2022/07/23 03:42:54;;;;;;;1.40;1.30;;;26.70;74.20;;;;;;5073302;28;20473;-94
2022/07/23 03:45:21;;;;;;;1.70;1.60;;;26.70;74.20;;;;;;5073521;28;20445;-94
2022/07/23 03:47:48;;;;;;;1.27;1.17;;;26.70;74.20;;;;;;5074383;28;20535;-93
2022/07/23 03:50:15;;;;;;;1.47;1.37;;;26.70;74.20;;;;;;5073852;28;20449;-93
2022/07/23 03:52:42;;;;;;;1.50;1.20;;;26.70;74.20;;;;;;5073268;28;20496;-93
2022/07/23 03:55:09;;;;;;;1.40;1.30;;;26.70;74.20;;;;;;5073609;28;20542;-95
2022/07/23 03:57:38;;;;;;;1.43;1.33;;;26.70;74.20;;;;;;5073500;28;20476;-94
2022/07/23 04:00:08;;;;;;;1.70;1.60;;;26.70;74.20;;;;;;5073603;28;20437;-93
2022/07/23 04:02:35;;;;;;;1.37;1.27;;;26.70;74.20;;;;;;5074111;28;20869;-93
2022/07/23 04:05:02;;;;;;;1.30;1.20;;;26.70;74.20;;;;;;5074150;28;20476;-93
2022/07/23 04:07:29;;;;;;;1.30;1.20;;;26.70;74.20;;;;;;5073243;28;20441;-93
2022/07/23 04:09:56;;;;;;;1.40;1.30;;;26.70;74.20;;;;;;5073246;28;20445;-94
2022/07/23 04:12:23;;;;;;;1.40;1.30;;;26.70;74.20;;;;;;5073319;28;20490;-93
2022/07/23 04:14:52;;;;;;;1.47;1.37;;;26.70;74.20;;;;;;5073432;28;20509;-94
2022/07/23 04:17:19;;;;;;;1.40;1.30;;;26.70;74.20;;;;;;5073518;28;20449;-93
2022/07/23 04:19:46;;;;;;;1.30;1.20;;;26.70;74.10;;;;;;5073469;28;20476;-93
2022/07/23 04:22:13;;;;;;;1.63;1.50;;;26.60;74.10;;;;;;5073580;28;20453;-93
2022/07/23 04:24:40;;;;;;;1.23;1.13;;;26.70;74.10;;;;;;5073453;28;21018;-94
2022/07/23 04:27:07;;;;;;;1.50;1.40;;;26.70;74.10;;;;;;5074107;28;20479;-93
2022/07/23 04:29:34;;;;;;;1.20;1.10;;;26.70;74.20;;;;;;5073192;28;20480;-94
2022/07/23 04:32:03;;;;;;;1.20;1.10;;;26.70;75.00;;;;;;5073061;28;20468;-93
2022/07/23 04:34:30;;;;;;;1.20;1.10;;;26.70;74.10;;;;;;5073011;28;21059;-93
2022/07/23 04:36:57;;;;;;;1.50;1.40;;;26.70;74.20;;;;;;5072875;28;21002;-93
2022/07/23 04:39:24;;;;;;;1.20;1.10;;;26.60;74.00;;;;;;5074786;28;20947;-93
2022/07/23 04:41:51;;;;;;;1.30;1.20;;;26.70;74.10;;;;;;5077308;28;20491;-93
2022/07/23 04:44:17;;;;;;;1.27;1.17;;;26.70;74.10;;;;;;5076611;28;21023;-93
2022/07/23 04:46:44;;;;;;;1.30;1.20;;;26.70;74.20;;;;;;5076383;28;20840;-93
2022/07/23 04:49:13;;;;;;;1.27;1.17;;;26.70;74.10;;;;;;5076641;28;20770;-94
2022/07/23 04:51:40;;;;;;;1.40;1.30;;;26.60;74.20;;;;;;5076140;28;20472;-93
2022/07/23 04:54:07;;;;;;;1.33;1.23;;;26.70;74.10;;;;;;5077228;28;20537;-93
2022/07/23 04:56:34;;;;;;;1.13;1.00;;;26.60;74.00;;;;;;5075972;28;21009;-94
2022/07/23 04:59:01;;;;;;;1.30;1.20;;;26.70;74.00;;;;;;5076353;28;20441;-93
2022/07/23 05:01:28;;;;;;;1.30;1.20;;;26.70;74.10;;;;;;5076069;28;20486;-93
2022/07/23 05:03:54;;;;;;;1.10;1.00;;;26.60;74.00;;;;;;5075992;28;20968;-93
2022/07/23 05:06:23;;;;;;;1.10;1.00;;;26.70;74.10;;;;;;5075828;28;20487;-94
2022/07/23 05:08:50;;;;;;;2.17;1.40;;;26.60;74.00;;;;;;5076341;28;20451;-93
2022/07/23 05:11:17;;;;;;;1.20;1.10;;;26.60;74.00;;;;;;5076091;28;20966;-93
2022/07/23 05:13:44;;;;;;;1.27;1.17;;;26.60;74.00;;;;;;5076324;28;20508;-94
2022/07/23 05:16:11;;;;;;;1.30;1.20;;;26.70;74.10;;;;;;5077257;28;20977;-94
2022/07/23 05:18:37;;;;;;;1.30;1.20;;;26.60;74.00;;;;;;5076093;28;20445;-93
2022/07/23 05:21:05;;;;;;;1.10;1.00;;;26.70;74.10;;;;;;5076149;28;20476;-93
2022/07/23 05:23:33;;;;;;;1.30;1.20;;;26.60;74.00;;;;;;5076073;28;20483;-94
2022/07/23 05:26:00;;;;;;;1.20;1.10;;;26.70;74.10;;;;;;5076680;28;20449;-95
2022/07/23 05:28:27;;;;;;;1.40;1.30;;;26.60;74.00;;;;;;5076215;28;20471;-94
2022/07/23 05:30:54;;;;;;;1.40;1.30;;;26.60;74.00;;;;;;5076092;28;20940;-92
2022/07/23 05:33:21;;;;;;;1.27;1.17;;;26.60;74.00;;;;;;5075512;28;20979;-94
2022/07/23 05:35:48;;;;;;;4.93;4.63;;;26.70;74.10;;;;;;5075130;28;20508;-90
2022/07/23 05:38:15;;;;;;;7.13;5.33;;;26.60;74.40;;;;;;5074630;28;20496;-90
2022/07/23 05:40:43;;;;;;;5.20;4.80;;;26.50;74.80;;;;;;5075034;28;20871;-90
2022/07/23 05:43:10;;;;;;;5.60;5.20;;;26.50;74.80;;;;;;5075056;28;20506;-90
2022/07/23 05:45:37;;;;;;;6.07;5.13;;;26.40;75.00;;;;;;5075082;28;20448;-90
2022/07/23 05:48:04;;;;;;;6.70;4.20;;;26.30;75.30;;;;;;5076312;28;20965;-93
2022/07/23 05:50:31;;;;;;;8.33;5.90;;;26.20;75.50;;;;;;5075386;28;20522;-92
2022/07/23 05:52:58;;;;;;;6.23;5.30;;;26.20;76.00;;;;;;5075071;28;20496;-92
2022/07/23 05:55:25;;;;;;;6.73;5.53;;;26.00;76.60;;;;;;5075987;28;20863;-87
2022/07/23 05:57:54;;;;;;;8.97;6.07;;;26.00;76.90;;;;;;5075107;28;20437;-87
2022/07/23 06:00:21;;;;;;;6.37;5.77;;;25.80;77.20;;;;;;5074827;28;20804;-90
2022/07/23 06:02:48;;;;;;;5.97;5.30;;;25.70;77.30;;;;;;5074767;28;20828;-89
2022/07/23 06:05:15;;;;;;;6.33;5.83;;;25.70;77.80;;;;;;5079216;28;20866;-87
2022/07/23 06:07:42;;;;;;;8.43;7.63;;;25.60;78.50;;;;;;5077782;23;20484;-87
2022/07/23 06:10:09;;;;;;;7.80;7.07;;;25.60;78.60;;;;;;5061152;28;20501;-87
2022/07/23 06:12:37;;;;;;;11.23;7.20;;;25.50;78.50;;;;;;5062331;28;20464;-87
2022/07/23 06:15:07;;;;;;;9.10;8.20;;;25.50;78.80;;;;;;5080393;23;20520;-86
2022/07/23 06:17:33;;;;;;;8.90;8.00;;;25.40;78.50;;;;;;5080420;28;20483;-86
2022/07/23 06:20:01;;;;;;;8.53;7.73;;;25.40;79.00;;;;;;5074249;22;20596;-86
2022/07/23 06:22:28;;;;;;;8.67;8.03;;;25.40;79.40;;;;;;5060055;28;20545;-86
2022/07/23 06:24:54;;;;;;;9.07;8.37;;;25.30;80.00;;;;;;5061159;28;20481;-87
2022/07/23 06:27:22;;;;;;;9.87;9.00;;;25.30;80.20;;;;;;5087771;23;20903;-86
2022/07/23 06:29:48;;;;;;;10.47;9.30;;;25.20;80.70;;;;;;5120112;28;21005;-86
2022/07/23 06:32:17;;;;;;;12.10;10.90;;;25.20;81.90;;;;;;5121022;28;20475;-86
2022/07/23 06:34:44;;;;;;;12.73;11.57;;;25.20;81.00;;;;;;5121174;28;20514;-86
2022/07/23 06:37:10;;;;;;;11.63;10.30;;;25.20;81.20;;;;;;5118790;28;20478;-86
2022/07/23 06:39:37;;;;;;;11.90;11.00;;;25.20;81.60;;;;;;5120924;28;20497;-86
2022/07/23 06:42:05;;;;;;;11.80;9.83;;;25.20;81.90;;;;;;5119978;28;20953;-86
2022/07/23 06:44:31;;;;;;;17.17;9.70;;;25.20;81.90;;;;;;5120883;28;20483;-87
2022/07/23 06:46:58;;;;;;;9.53;8.50;;;25.20;81.60;;;;;;5116088;22;20459;-87
2022/07/23 06:49:27;;;;;;;10.40;8.90;;;25.20;81.60;;;;;;5104854;22;21078;-86
2022/07/23 06:51:54;;;;;;;9.67;8.50;;;25.20;82.00;;;;;;5083072;28;20476;-86
2022/07/23 06:54:21;;;;;;;8.40;7.70;;;25.20;82.30;;;;;;5127293;22;20519;-88
2022/07/23 07:01:58;;;;;;;9.00;8.10;;;25.20;82.20;;;;;;3170629;22;20564;-86
2022/07/23 07:07:02;;;;;;;11.30;8.47;;;25.20;82.30;;;;;;4333039;26;20446;-85
2022/07/23 07:09:29;;;;;;;8.10;7.23;;;25.30;82.50;;;;;;5038521;28;20435;-92
2022/07/23 07:11:56;;;;;;;7.73;6.93;;;25.30;82.10;;;;;;5034674;28;20438;-93
2022/07/23 07:14:23;;;;;;;8.40;7.50;;;25.40;81.90;;;;;;5033573;28;20485;-93
2022/07/23 07:16:50;;;;;;;9.90;7.23;;;25.50;82.00;;;;;;5033994;28;20489;-93
2022/07/23 07:19:17;;;;;;;9.00;8.10;;;25.60;81.90;;;;;;5034885;28;20922;-93
2022/07/23 07:21:44;;;;;;;8.00;7.30;;;25.60;82.20;;;;;;5033990;28;20458;-93
2022/07/23 07:24:12;;;;;;;9.63;7.70;;;25.70;82.30;;;;;;5033867;28;20477;-93
2022/07/23 07:26:39;;;;;;;7.13;6.00;;;25.80;82.00;;;;;;5033658;28;20952;-90
2022/07/23 07:29:06;;;;;;;10.80;7.23;;;25.80;81.80;;;;;;5033555;28;20446;-94
2022/07/23 07:31:34;;;;;;;9.53;7.87;;;25.90;81.50;;;;;;5038584;28;20576;-90
2022/07/23 07:34:04;;;;;;;8.93;7.27;;;25.90;81.90;;;;;;5053721;28;20486;-93
2022/07/23 07:36:36;;;;;;;8.40;7.47;;;25.90;81.30;;;;;;5063041;28;20453;-95
2022/07/23 07:39:04;;;;;;;7.20;6.50;;;26.00;81.20;;;;;;5062736;28;20826;-93
2022/07/23 07:41:37;;;;;;;6.80;6.10;;;26.00;81.30;;;;;;5064155;28;20454;-93
2022/07/23 07:44:04;;;;;;;6.60;6.10;;;26.00;81.00;;;;;;5054565;28;20430;-88
2022/07/23 07:46:31;;;;;;;6.20;5.60;;;26.10;80.90;;;;;;5054445;28;20442;-90
2022/07/23 07:48:58;;;;;;;4.73;4.33;;;26.10;80.80;;;;;;5056536;28;20473;-88
2022/07/23 07:51:25;;;;;;;5.57;5.07;;;26.10;80.50;;;;;;5053124;28;20481;-92
2022/07/23 07:53:52;;;;;;;9.30;5.27;;;26.00;80.00;;;;;;5052834;28;20580;-88
2022/07/23 07:56:18;;;;;;;5.13;4.33;;;26.10;79.10;;;;;;5053204;28;20496;-86
2022/07/23 07:58:47;;;;;;;5.97;4.37;;;26.10;78.90;;;;;;5057186;28;20520;-86
2022/07/23 08:01:14;;;;;;;5.00;4.63;;;26.00;78.50;;;;;;5056492;28;20462;-91
2022/07/23 08:03:40;;;;;;;5.77;5.10;;;26.00;78.50;;;;;;5053339;28;20530;-92
2022/07/23 08:06:08;;;;;;;5.13;4.30;;;26.00;78.90;;;;;;5053739;28;20488;-96
2022/07/23 08:08:35;;;;;;;4.13;3.73;;;26.10;79.00;;;;;;5052617;28;20474;-93
2022/07/23 08:11:01;;;;;;;7.97;4.50;;;26.10;79.20;;;;;;5053112;28;20478;-88
2022/07/23 08:13:28;;;;;;;4.83;4.00;;;26.10;78.90;;;;;;5054806;28;20544;-89
2022/07/23 08:15:56;;;;;;;3.97;3.50;;;26.10;78.90;;;;;;5057562;28;20453;-88
2022/07/23 08:18:23;;;;;;;4.90;3.43;;;26.10;78.80;;;;;;5057021;28;20450;-88
2022/07/23 08:20:50;;;;;;;3.23;2.93;;;26.20;78.80;;;;;;5056784;28;20560;-88
2022/07/23 08:23:19;;;;;;;4.27;2.93;;;26.20;78.60;;;;;;5057016;28;20532;-95
2022/07/23 08:25:47;;;;;;;5.77;3.10;;;26.20;78.30;;;;;;5057091;28;20456;-88
2022/07/23 08:28:15;;;;;;;2.70;2.50;;;26.20;78.00;;;;;;5056491;28;20533;-88
2022/07/23 08:30:44;;;;;;;2.93;2.63;;;26.20;77.60;;;;;;5056974;28;20438;-89
2022/07/23 08:33:14;;;;;;;3.40;2.70;;;26.30;77.50;;;;;;5055906;28;20557;-88
2022/07/23 08:35:44;;;;;;;2.83;2.63;;;26.20;77.20;;;;;;5055890;28;21037;-88
2022/07/23 08:38:12;;;;;;;3.00;2.80;;;26.20;77.10;;;;;;5056659;28;20453;-88
2022/07/23 08:40:40;;;;;;;2.67;2.47;;;26.30;77.00;;;;;;5056199;28;20449;-94
2022/07/23 08:43:09;;;;;;;2.80;2.60;;;26.30;76.80;;;;;;5056633;28;20537;-88
2022/07/23 08:45:39;;;;;;;2.90;2.70;;;26.30;76.70;;;;;;5056783;28;20523;-88
2022/07/23 08:48:09;;;;;;;2.47;2.27;;;26.30;76.50;;;;;;5056897;28;20468;-88
2022/07/23 08:50:41;;;;;;;3.23;2.80;;;26.30;76.40;;;;;;5056027;28;20961;-88
2022/07/23 08:53:08;;;;;;;2.80;2.23;;;26.30;76.30;;;;;;5056321;28;20519;-88
2022/07/23 08:55:35;;;;;;;5.50;3.00;;;26.40;76.40;;;;;;5056086;28;20584;-88
2022/07/23 08:58:02;;;;;;;3.63;2.60;;;26.30;76.20;;;;;;5056364;28;20874;-89
2022/07/23 09:00:30;;;;;;;2.83;2.67;;;26.40;76.10;;;;;;5056396;28;20473;-95
2022/07/23 09:02:57;;;;;;;2.53;2.33;;;26.40;76.10;;;;;;5056667;28;20553;-95
2022/07/23 09:05:24;;;;;;;2.57;2.37;;;26.40;76.00;;;;;;5055808;28;20569;-88
2022/07/23 09:08:13;;;;;;;3.10;2.40;;;26.40;76.00;;;;;;5055804;28;20528;-89
2022/07/23 09:10:52;;;;;;;2.67;2.47;;;26.50;75.80;;;;;;5056318;28;20525;-88
2022/07/23 09:13:36;;;;;;;2.30;2.10;;;26.40;75.80;;;;;;5056082;28;20866;-88
2022/07/23 09:16:06;;;;;;;2.70;2.20;;;26.40;75.80;;;;;;5056139;28;20477;-89
2022/07/23 09:18:39;;;;;;;2.43;2.23;;;26.40;75.80;;;;;;5056492;28;20477;-88
2022/07/23 09:21:11;;;;;;;2.33;2.00;;;26.40;75.70;;;;;;5055648;28;20913;-89
2022/07/23 09:23:41;;;;;;;2.80;2.60;;;26.40;75.70;;;;;;5056906;28;20466;-95
2022/07/23 09:26:30;;;;;;;1.90;1.80;;;26.40;75.60;;;;;;5055561;28;20477;-94
2022/07/23 09:29:00;;;;;;;2.47;2.20;;;26.40;75.50;;;;;;5055943;28;20497;-95
2022/07/23 09:31:34;;;;;;;2.00;1.80;;;26.40;75.70;;;;;;5056408;28;20537;-88
2022/07/23 09:34:09;;;;;;;3.40;2.07;;;26.50;75.70;;;;;;5056028;28;20487;-89
2022/07/23 09:36:36;;;;;;;2.00;1.90;;;26.40;75.60;;;;;;5055830;28;20869;-89
2022/07/23 09:39:04;;;;;;;2.00;1.90;;;26.50;75.70;;;;;;5055724;28;20540;-88
2022/07/23 09:41:37;;;;;;;2.43;2.23;;;26.50;75.70;;;;;;5056014;28;20936;-88
2022/07/23 09:44:12;;;;;;;2.23;2.13;;;26.50;75.70;;;;;;5055722;28;20480;-88
2022/07/23 09:46:40;;;;;;;2.03;1.93;;;26.50;75.60;;;;;;5056234;28;20440;-88
2022/07/23 09:49:18;;;;;;;1.90;1.77;;;26.50;75.60;;;;;;5055005;28;20479;-88
2022/07/23 09:51:48;;;;;;;1.97;1.87;;;26.50;75.60;;;;;;5054974;28;20947;-88
2022/07/23 09:54:29;;;;;;;2.20;2.00;;;26.50;75.60;;;;;;5055290;28;20568;-89
2022/07/23 09:56:57;;;;;;;1.80;1.70;;;26.50;75.50;;;;;;5055598;28;20434;-89
2022/07/23 09:59:26;;;;;;;2.30;2.10;;;26.50;75.60;;;;;;5055033;28;20525;-89
2022/07/23 10:01:54;;;;;;;2.00;1.90;;;26.50;75.60;;;;;;5055585;28;20472;-89
2022/07/23 10:04:23;;;;;;;2.37;2.17;;;26.50;75.50;;;;;;5055038;28;20450;-88
2022/07/23 10:06:53;;;;;;;1.70;1.60;;;26.50;75.50;;;;;;5055038;28;20482;-89
2022/07/23 10:09:27;;;;;;;1.90;1.80;;;26.50;75.40;;;;;;5055150;28;20513;-89
2022/07/23 10:11:59;;;;;;;1.80;1.70;;;26.50;75.50;;;;;;5055011;28;20517;-89
2022/07/23 10:14:30;;;;;;;2.27;2.17;;;26.50;75.50;;;;;;5054960;28;20481;-95
2022/07/23 10:16:57;;;;;;;1.87;1.77;;;26.50;76.30;;;;;;5055904;28;20448;-88
2022/07/23 10:19:25;;;;;;;2.17;2.07;;;26.50;75.50;;;;;;5054779;28;20888;-89
2022/07/23 10:21:56;;;;;;;1.90;1.80;;;26.50;75.50;;;;;;5054940;28;20456;-89
2022/07/23 10:24:37;;;;;;;1.60;1.50;;;26.50;75.40;;;;;;5054864;28;20507;-89
2022/07/23 10:27:23;;;;;;;1.80;1.70;;;26.50;75.30;;;;;;5054591;28;20537;-90
2022/07/23 10:29:56;;;;;;;1.63;1.53;;;26.50;75.40;;;;;;5055309;28;20429;-89
2022/07/23 10:32:32;;;;;;;1.60;1.50;;;26.50;75.30;;;;;;5055183;28;20553;-89
2022/07/23 10:35:11;;;;;;;1.97;1.87;;;26.50;75.20;;;;;;5054149;28;20481;-89
2022/07/23 10:37:42;;;;;;;2.90;2.03;;;26.50;75.20;;;;;;5054098;28;20434;-93
2022/07/23 10:40:13;;;;;;;1.67;1.57;;;26.50;75.30;;;;;;5054955;28;20434;-90
2022/07/23 10:42:41;;;;;;;1.77;1.67;;;26.50;75.20;;;;;;5054317;28;20450;-89
2022/07/23 10:45:29;;;;;;;2.73;1.50;;;26.50;75.20;;;;;;5054243;28;20515;-89
2022/07/23 10:47:56;;;;;;;1.73;1.63;;;26.50;75.20;;;;;;5055134;28;20841;-89
2022/07/23 10:50:27;;;;;;;1.93;1.83;;;26.50;75.30;;;;;;5054194;28;20465;-89
2022/07/23 10:53:18;;;;;;;1.70;1.57;;;26.50;75.20;;;;;;5054855;28;20869;-89
2022/07/23 10:55:51;;;;;;;2.17;2.07;;;26.60;75.20;;;;;;5039670;28;20564;-89
2022/07/23 10:58:23;;;;;;;1.57;1.47;;;26.50;75.20;;;;;;5054315;28;20801;-89
2022/07/23 11:00:51;;;;;;;2.40;2.20;;;26.50;75.10;;;;;;5054170;28;20521;-88
2022/07/23 11:03:36;;;;;;;2.40;1.70;;;26.50;75.10;;;;;;5054128;28;20441;-89
2022/07/23 11:06:03;;;;;;;1.80;1.70;;;26.60;75.10;;;;;;5054075;28;20465;-88
2022/07/23 11:08:30;;;;;;;1.90;1.80;;;26.50;75.20;;;;;;5054022;28;20536;-88
2022/07/23 11:11:10;;;;;;;1.50;1.40;;;26.50;75.10;;;;;;5053682;28;20442;-89
2022/07/23 11:13:49;;;;;;;1.73;1.63;;;26.60;75.10;;;;;;5053755;28;20966;-89
2022/07/23 11:16:18;;;;;;;1.70;1.60;;;26.50;75.00;;;;;;5053776;28;20513;-88
2022/07/23 11:19:08;;;;;;;1.60;1.40;;;26.50;75.10;;;;;;5053994;28;20545;-89
2022/07/23 11:21:51;;;;;;;1.50;1.40;;;26.60;75.10;;;;;;5053913;28;20461;-88
2022/07/23 11:24:20;;;;;;;1.70;1.60;;;26.60;75.10;;;;;;5053598;28;20924;-89
2022/07/23 11:27:08;;;;;;;1.80;1.70;;;26.50;75.10;;;;;;5053778;28;20476;-90
2022/07/23 11:29:45;;;;;;;2.60;1.60;;;26.50;75.00;;;;;;5053561;28;20598;-89
2022/07/23 11:32:33;;;;;;;1.50;1.40;;;26.60;75.10;;;;;;5054119;28;20461;-89
2022/07/23 11:35:00;;;;;;;1.50;1.40;;;26.50;74.90;;;;;;5053280;28;20912;-89
2022/07/23 11:37:46;;;;;;;1.70;1.60;;;26.50;75.00;;;;;;5053387;28;20434;-89
2022/07/23 11:40:17;;;;;;;1.60;1.50;;;26.60;75.80;;;;;;5054415;28;20438;-89
2022/07/23 11:42:56;;;;;;;1.60;1.50;;;26.60;75.10;;;;;;5053902;28;20474;-94
2022/07/23 11:45:25;;;;;;;1.67;1.57;;;26.60;75.00;;;;;;5054243;28;20540;-93
2022/07/23 11:47:52;;;;;;;1.43;1.33;;;26.50;75.00;;;;;;5054550;28;20484;-89
2022/07/23 11:50:19;;;;;;;1.53;1.43;;;26.60;75.00;;;;;;5057868;28;20453;-89
2022/07/23 11:52:46;;;;;;;1.60;1.50;;;26.60;75.00;;;;;;5058572;28;20830;-89
2022/07/23 11:55:16;;;;;;;1.40;1.30;;;26.60;75.00;;;;;;5057620;28;20572;-95
2022/07/23 11:57:43;;;;;;;1.27;1.17;;;26.60;75.00;;;;;;5057417;28;20446;-89
2022/07/23 12:00:14;;;;;;;1.43;1.33;;;26.60;74.90;;;;;;5057345;28;20473;-88
2022/07/23 12:02:43;;;;;;;1.80;1.70;;;26.60;74.90;;;;;;5057974;28;20875;-89
2022/07/23 12:05:13;;;;;;;1.60;1.50;;;26.60;74.90;;;;;;5057744;28;20523;-93
2022/07/23 12:07:43;;;;;;;1.47;1.30;;;26.60;74.90;;;;;;5057173;28;20504;-89
2022/07/23 12:10:14;;;;;;;2.03;1.27;;;26.60;75.00;;;;;;5057225;28;20446;-88
2022/07/23 12:12:43;;;;;;;1.60;1.50;;;26.60;74.90;;;;;;5057174;28;20440;-89
2022/07/23 12:15:12;;;;;;;1.73;1.37;;;26.60;74.80;;;;;;5056756;28;20504;-89
2022/07/23 12:17:41;;;;;;;1.30;1.20;;;26.60;74.80;;;;;;5056722;28;20448;-91
2022/07/23 12:20:10;;;;;;;1.60;1.50;;;26.60;74.80;;;;;;5058380;28;20442;-94
2022/07/23 12:22:40;;;;;;;1.70;1.60;;;26.60;74.80;;;;;;5056755;28;20526;-94
2022/07/23 12:25:09;;;;;;;1.50;1.40;;;26.60;74.70;;;;;;5056781;28;20525;-88
2022/07/23 12:27:37;;;;;;;2.37;1.70;;;26.60;74.80;;;;;;5056714;28;21008;-90
2022/07/23 12:30:19;;;;;;;1.40;1.30;;;26.60;74.80;;;;;;5056841;28;20540;-89
2022/07/23 12:32:48;;;;;;;1.80;1.70;;;26.70;74.80;;;;;;5057102;28;20564;-89
2022/07/23 12:35:15;;;;;;;1.37;1.27;;;26.60;74.80;;;;;;5057213;28;20683;-89
2022/07/23 12:37:44;;;;;;;1.30;1.20;;;26.60;74.70;;;;;;5057009;28;20477;-88
2022/07/23 12:40:22;;;;;;;1.37;1.27;;;26.60;74.70;;;;;;5056805;28;20441;-89
2022/07/23 12:42:50;;;;;;;1.43;1.33;;;26.60;74.70;;;;;;5056590;28;20846;-88
2022/07/23 12:45:19;;;;;;;1.60;1.50;;;26.60;74.80;;;;;;5056579;28;20456;-89
2022/07/23 12:48:16;;;;;;;1.40;1.30;;;26.60;74.70;;;;;;5056702;28;20495;-88
2022/07/23 12:50:50;;;;;;;1.63;1.53;;;26.60;74.60;;;;;;5043696;28;20489;-88
2022/07/23 12:53:19;;;;;;;1.53;1.43;;;26.60;74.70;;;;;;5056549;28;20445;-89
2022/07/23 12:55:48;;;;;;;1.50;1.40;;;26.60;74.70;;;;;;5056271;28;20580;-89
2022/07/23 12:58:17;;;;;;;1.60;1.50;;;26.60;74.70;;;;;;5056249;28;20507;-88
2022/07/23 13:01:09;;;;;;;1.50;1.40;;;26.60;74.70;;;;;;5054913;28;20433;-93
2022/07/23 13:03:41;;;;;;;1.40;1.30;;;26.70;74.60;;;;;;5041230;28;20466;-88
2022/07/23 13:06:10;;;;;;;1.40;1.30;;;26.60;74.70;;;;;;5056317;28;20474;-93